Terminal Aerodrome Forecast
Issued by NWS

Home | Current Version | Previous Version | Text Only | Print | Product List | Glossary On
Versions: 1 2 3 4 5 6 7 8 9 10 11 12 13 14
000
FTUS45 KGJT 301126
TAFMTJ
TAF
KMTJ 301126Z 3012/3112 15008KT P6SM SCT150 SCT250
     FM301800 36004KT P6SM SCT120 SCT250
     FM302100 32008KT P6SM SCT110 SCT250
     FM310100 02007KT P6SM SCT250
     FM310300 15006KT P6SM SCT250
     FM311100 12006KT P6SM FEW250=

USA.gov is the U.S. government's official web portal to all federal, state and local government web resources and services.